Ana Sayfa
METAR-TAF:

METAR-TAF

Havaalanları :

Kunming, Çin

Enlem: 25-01N, Boylam: 102-41E, yükseklik: 1892 m

Güncel hava durumu gözlemi

Rapor saat 12:00 UTC de 11 dakika önce yapıldı.
Rüzgar güneybatıdan 16 kt
Sıcaklık 14°C
Nem 63%
Basınç 1027 hPa
Görüş mesafesi 10 km veya daha fazla
1500 m altında bulut yok ve kümülonimbus yok

METAR: ZPPP 221200Z 22008MPS CAVOK 14/07 Q1027 NOSIG

Saat: 20:11 (12:11 UTC)

Tahmin

Rapor saat 09:04 UTC de 3 saat ve 7 dakika önce yapıldı.
Ayın 22'si saat 12 UTC'den ayın 23'si saat 12 UTC'ye kadar geçerli Tahmin
Rüzgar güneybatıdan 12 kt
Görüş mesafesi 10 km veya daha fazla
2600 ft yükseklikte parçalı bulutlu

TAF: ZPPP 220904Z 2212/2312 22006MPS 9999 SCT026 TX19/2308Z TN06/2223Z

4.000'den fazla havaalanı için hava durumu gözlemleri ve tahminleri (METAR ve TAF raporları).

Kullanılabilir istasyonlar harita üzerinde sarı ve kırmızı noktalarla gösterilir.

İstasyonun adını görmek için fareyi noktanın üzerinde gezdirin.

Sonrasında hava gözlem ve tahminlerini görmek için tıklayın.

Haritayı değiştirmek için: yaklaştırmak için siyah artı işaretli yeşil düğmeye ve uzaklaştırmak için de eksi işaretli düğmeye hızla tıklayın; bitişik haritalar için yeşil okları kullanın.


METAR-TAF: